EPZP weather

Zielona Góra-Przylep Airport
Zielona Góra, Lubusz, Poland

Public forecast

Using degrees Celsius for public forecast. Weather courtesy of forecast.io.

METAR (pilot weather report)

Closest report is Zielona Góra-Babimost Airport, 15.6 nm (29.0 km) NE. Retrieved 2019/04/19 08:00 UTC (3 minutes ago):

EPZG 190800Z 36002KT CAVOK 14/02 Q1034

TAF (pilot weather forecast)

Forecast is more than 12 hours old.

Closest forecast is Zielona Góra-Babimost Airport, 15.6 nm (29.0 km) NE. Retrieved 2012/06/28 21:49 UTC (7 years ago):

TAF EPZG 282000Z 2821/2906 VRB02KT CAVOK TEMPO 2823/2904 5000 BR PROB30 2900/2904 1500 BR BKN005